Time;durP1;ratioP1;P1;durP2;ratioP2;P2;SDS_P1;SDS_P2;PMS_P1;PMS_P2;Temp;Humidity;BMP_temperature;BMP_pressure;BME280_temperature;BME280_humidity;BME280_pressure;Samples;Min_cycle;Max_cycle;Signal;HPM_P1;HPM_P2
2023/09/04 04:47:13;;;;;;;8.40;4.40;;;;;;;16.90;91.95;100252.48;112976;1249;22444;-47
2023/09/04 04:49:43;;;;;;;5.80;4.10;;;;;;;17.03;91.71;100250.00;112790;1240;22409;-47
2023/09/04 04:52:15;;;;;;;7.80;4.00;;;;;;;17.20;91.28;100255.20;112576;1244;22943;-47
2023/09/04 04:54:48;;;;;;;9.40;4.10;;;;;;;17.37;90.41;100252.95;112576;1244;22283;-47
2023/09/04 04:57:16;;;;;;;5.30;3.70;;;;;;;17.53;89.40;100256.17;112897;1239;22955;-38
2023/09/04 04:59:48;;;;;;;7.80;3.80;;;;;;;17.70;87.95;100253.73;112753;1249;22249;-39
2023/09/04 05:02:17;;;;;;;6.60;4.40;;;;;;;17.88;86.49;100257.63;112704;1242;22442;-39
2023/09/04 05:04:47;;;;;;;8.70;4.40;;;;;;;18.06;85.52;100255.34;112827;1240;23658;-39
2023/09/04 05:07:16;;;;;;;10.00;3.90;;;;;;;18.23;84.32;100255.66;112783;1249;22431;-47
2023/09/04 05:09:43;;;;;;;8.50;4.40;;;;;;;18.38;83.45;100256.60;112842;1239;22341;-39
2023/09/04 05:12:14;;;;;;;7.10;4.00;;;;;;;18.52;82.50;100255.42;112789;1239;23102;-38
2023/09/04 05:14:52;;;;;;;4.50;3.60;;;;;;;18.65;81.52;100257.27;112777;1244;22312;-38
2023/09/04 05:17:23;;;;;;;5.70;3.70;;;;;;;18.75;80.51;100258.36;112872;1246;22392;-46
2023/09/04 05:19:50;;;;;;;5.20;3.60;;;;;;;18.84;79.79;100258.59;112774;1246;22595;-46
2023/09/04 05:22:25;;;;;;;9.10;3.70;;;;;;;18.95;79.00;100261.40;112851;1238;22412;-46
2023/09/04 05:24:58;;;;;;;7.80;4.00;;;;;;;19.05;77.88;100264.39;112564;1249;22433;-38
2023/09/04 05:27:26;;;;;;;5.50;3.90;;;;;;;19.15;77.12;100264.04;112731;1239;22408;-39
2023/09/04 05:29:54;;;;;;;7.10;4.10;;;;;;;19.26;76.06;100267.89;112763;1249;23576;-47
2023/09/04 05:32:22;;;;;;;7.20;3.80;;;;;;;19.36;75.37;100267.55;112834;1249;22414;-38
2023/09/04 05:34:52;;;;;;;5.70;3.70;;;;;;;19.49;74.43;100267.61;112744;1242;22198;-46
2023/09/04 05:37:19;;;;;;;6.10;4.10;;;;;;;19.59;73.37;100268.11;112750;1247;23562;-47
2023/09/04 05:39:46;;;;;;;8.90;3.60;;;;;;;19.66;72.01;100270.70;112667;1239;22349;-47
2023/09/04 05:42:15;;;;;;;5.90;3.60;;;;;;;19.72;71.82;100273.31;112679;1247;22554;-47
2023/09/04 05:44:42;;;;;;;5.60;3.60;;;;;;;19.81;71.86;100273.31;112692;1239;23148;-48
2023/09/04 05:47:09;;;;;;;4.30;3.50;;;;;;;19.95;71.66;100274.36;112459;1249;22431;-39
2023/09/04 05:49:36;;;;;;;6.30;4.00;;;;;;;20.10;70.92;100274.33;112644;1249;22342;-39
2023/09/04 05:52:08;;;;;;;13.70;4.60;;;;;;;20.20;70.07;100279.20;112774;1249;23093;-38
2023/09/04 05:54:47;;;;;;;5.80;4.00;;;;;;;20.27;69.31;100285.13;112451;1242;22597;-38
2023/09/04 05:57:14;;;;;;;9.80;3.60;;;;;;;20.35;68.81;100275.79;112678;1249;22392;-39
2023/09/04 05:59:46;;;;;;;4.90;3.60;;;;;;;20.46;68.84;100275.52;112520;1241;22269;-39
2023/09/04 06:02:13;;;;;;;6.50;3.40;;;;;;;20.61;68.45;100271.73;112559;1239;23130;-39
2023/09/04 06:04:40;;;;;;;8.80;3.80;;;;;;;20.74;67.57;100276.34;112458;1249;22350;-39
2023/09/04 06:07:10;;;;;;;5.30;3.70;;;;;;;20.83;67.22;100272.74;112384;1249;23377;-40
2023/09/04 06:09:40;;;;;;;5.10;3.30;;;;;;;20.93;66.90;100276.05;112765;1246;22383;-40
2023/09/04 06:12:10;;;;;;;8.30;3.70;;;;;;;21.04;66.81;100274.15;112707;1249;22469;-39
2023/09/04 06:14:37;;;;;;;8.90;3.70;;;;;;;21.13;65.72;100273.55;112660;1242;22242;-38
2023/09/04 06:17:12;;;;;;;7.50;3.80;;;;;;;21.21;65.45;100271.45;112648;1249;22377;-46
2023/09/04 06:19:48;;;;;;;5.80;3.40;;;;;;;21.28;65.03;100272.23;112618;1249;22941;-39
2023/09/04 06:22:18;;;;;;;7.80;3.80;;;;;;;21.34;64.60;100278.36;112425;1249;22440;-39
2023/09/04 06:24:51;;;;;;;5.80;3.90;;;;;;;21.41;64.65;100280.17;112638;1249;22252;-39
2023/09/04 06:27:26;;;;;;;9.10;3.70;;;;;;;21.53;64.17;100279.80;112579;1241;22881;-39
2023/09/04 06:29:53;;;;;;;8.80;3.90;;;;;;;21.62;63.92;100281.32;112642;1249;22587;-46
2023/09/04 06:32:23;;;;;;;5.30;3.50;;;;;;;21.71;63.46;100285.17;112680;1249;22934;-38
2023/09/04 06:35:00;;;;;;;7.00;3.50;;;;;;;21.78;63.02;100289.48;112612;1249;22330;-38
2023/09/04 06:37:26;;;;;;;4.00;3.30;;;;;;;21.89;62.74;100283.65;112751;1239;23493;-38
2023/09/04 06:39:53;;;;;;;5.50;3.30;;;;;;;22.05;62.31;100282.71;112661;1249;22384;-39
2023/09/04 06:42:19;;;;;;;5.40;2.80;;;;;;;22.19;61.58;100280.31;112685;1249;22418;-39
2023/09/04 06:44:46;;;;;;;7.70;3.20;;;;;;;22.28;61.09;100282.34;112670;1249;22333;-46
2023/09/04 06:47:14;;;;;;;5.70;3.20;;;;;;;22.37;60.39;100280.85;112647;1245;22409;-38
2023/09/04 06:49:41;;;;;;;5.80;3.30;;;;;;;22.43;60.05;100283.39;112734;1249;22282;-38
2023/09/04 06:52:08;;;;;;;7.40;3.00;;;;;;;22.49;59.41;100284.67;112595;1249;23435;-39
2023/09/04 06:54:38;;;;;;;6.80;3.20;;;;;;;22.62;59.05;100283.16;112717;1247;23033;-46
2023/09/04 06:57:05;;;;;;;5.00;2.40;;;;;;;22.76;58.68;100281.88;112762;1247;22373;-38
2023/09/04 06:59:32;;;;;;;4.80;3.00;;;;;;;22.93;57.82;100286.05;112808;1249;22405;-39
2023/09/04 07:01:59;;;;;;;6.10;2.90;;;;;;;23.09;56.47;100287.54;112714;1243;22391;-48
2023/09/04 07:04:26;;;;;;;6.30;3.00;;;;;;;23.23;55.71;100288.95;112829;1240;23284;-46
2023/09/04 07:06:55;;;;;;;3.20;2.40;;;;;;;23.35;54.99;100290.79;112495;1249;22444;-37
2023/09/04 07:09:25;;;;;;;6.40;3.10;;;;;;;23.44;54.01;100294.43;112560;1248;22858;-38
2023/09/04 07:11:55;;;;;;;6.20;3.20;;;;;;;23.49;54.01;100292.03;112180;1249;22341;-38
2023/09/04 07:14:22;;;;;;;4.10;2.40;;;;;;;23.56;53.53;100289.85;112376;1249;23180;-38
2023/09/04 07:16:49;;;;;;;11.70;2.80;;;;;;;23.66;53.07;100287.24;112479;1240;22358;-46
2023/09/04 07:19:34;;;;;;;4.50;2.90;;;;;;;23.70;52.52;100287.34;112668;1239;22321;-46
2023/09/04 07:22:03;;;;;;;9.90;3.20;;;;;;;23.73;51.64;100286.49;112498;1249;23061;-40
2023/09/04 07:25:00;;;;;;;8.80;2.30;;;;;;;23.80;50.89;100288.56;112660;1248;22828;-40
2023/09/04 07:27:27;;;;;;;4.30;2.40;;;;;;;23.97;50.52;100288.56;112638;1249;22295;-39
2023/09/04 07:29:54;;;;;;;4.00;2.10;;;;;;;24.10;49.63;100285.34;112688;1249;22351;-38
2023/09/04 07:32:22;;;;;;;4.30;2.30;;;;;;;24.21;48.93;100287.55;112673;1246;22267;-39
2023/09/04 07:34:49;;;;;;;6.10;2.30;;;;;;;24.31;48.49;100286.61;112660;1240;23141;-47
2023/09/04 07:37:16;;;;;;;7.50;2.80;;;;;;;24.39;47.80;100284.91;112343;1246;22557;-47
2023/09/04 07:39:51;;;;;;;6.40;3.50;;;;;;;24.47;47.41;100283.58;112667;1249;22353;-47
2023/09/04 07:42:26;;;;;;;3.60;2.20;;;;;;;24.55;46.67;100279.95;112597;1249;22941;-45
2023/09/04 07:44:53;;;;;;;5.20;2.70;;;;;;;24.64;46.30;100279.02;112734;1248;22347;-38
2023/09/04 07:47:28;;;;;;;3.20;2.10;;;;;;;24.70;45.93;100275.98;112767;1249;22396;-47
2023/09/04 07:49:56;;;;;;;4.80;2.40;;;;;;;24.72;45.58;100283.56;112749;1249;22400;-46
2023/09/04 07:52:23;;;;;;;3.70;2.10;;;;;;;24.73;45.47;100282.99;112786;1249;22403;-47
2023/09/04 07:54:50;;;;;;;5.00;2.30;;;;;;;24.78;45.65;100282.32;112800;1239;22357;-47
2023/09/04 07:57:23;;;;;;;3.10;2.60;;;;;;;24.83;45.48;100280.24;112640;1249;198987;-47
2023/09/04 07:59:50;;;;;;;8.70;2.20;;;;;;;24.79;45.24;100278.65;112840;1247;23242;-47
2023/09/04 08:02:16;;;;;;;5.50;2.70;;;;;;;24.69;45.05;100273.75;112751;1240;22977;-47
2023/09/04 08:04:49;;;;;;;6.00;2.30;;;;;;;24.61;44.85;100286.50;112745;1249;22343;-39
2023/09/04 08:07:16;;;;;;;8.30;2.30;;;;;;;24.56;44.73;100283.40;112709;1249;23478;-39
2023/09/04 08:09:43;;;;;;;2.40;2.10;;;;;;;24.53;44.65;100287.01;112487;1249;22376;-39
2023/09/04 08:12:09;;;;;;;3.80;2.70;;;;;;;24.53;44.93;100296.98;112524;1243;22949;-40
2023/09/04 08:14:36;;;;;;;5.80;2.50;;;;;;;24.58;44.92;100298.84;112648;1240;22566;-39
2023/09/04 08:17:04;;;;;;;4.60;2.30;;;;;;;24.68;44.88;100297.35;112576;1246;22896;-47
2023/09/04 08:19:41;;;;;;;5.10;2.80;;;;;;;24.79;44.60;100292.60;112180;1249;22880;-48
2023/09/04 08:22:17;;;;;;;5.30;2.40;;;;;;;24.89;44.64;100292.88;112698;1241;22839;-47
2023/09/04 08:24:56;;;;;;;5.70;2.50;;;;;;;24.95;43.96;100286.47;112404;1249;22676;-39
2023/09/04 08:27:27;;;;;;;4.40;2.10;;;;;;;24.95;43.62;100283.09;112411;1249;22267;-46
2023/09/04 08:29:55;;;;;;;3.40;2.40;;;;;;;24.91;43.76;100284.94;112738;1248;22440;-47
2023/09/04 08:32:32;;;;;;;4.20;2.40;;;;;;;24.98;43.87;100287.02;112617;1248;22429;-38
2023/09/04 08:35:02;;;;;;;2.60;2.00;;;;;;;25.11;43.45;100280.58;112642;1249;22329;-47
2023/09/04 08:37:39;;;;;;;4.40;1.90;;;;;;;25.27;43.29;100278.48;112379;1244;23375;-40
2023/09/04 08:40:09;;;;;;;3.10;1.80;;;;;;;25.41;42.99;100277.09;112468;1249;23541;-49
2023/09/04 08:42:38;;;;;;;3.60;2.50;;;;;;;25.51;42.97;100278.06;112359;1249;22239;-39
2023/09/04 08:45:07;;;;;;;3.70;2.00;;;;;;;25.64;42.24;100282.64;112676;1249;22380;-39
2023/09/04 08:47:40;;;;;;;2.60;1.90;;;;;;;25.75;42.02;100289.66;112430;1249;22376;-47
2023/09/04 08:50:09;;;;;;;4.50;2.20;;;;;;;25.85;41.09;100285.98;112705;1249;22959;-47
2023/09/04 08:52:37;;;;;;;4.90;2.80;;;;;;;25.89;40.52;100286.61;112693;1249;22332;-47
2023/09/04 08:55:05;;;;;;;7.40;2.00;;;;;;;25.96;40.62;100287.39;112683;1249;23179;-38
2023/09/04 08:57:33;;;;;;;5.10;2.40;;;;;;;26.05;40.58;100284.88;112644;1249;22505;-46
2023/09/04 09:00:00;;;;;;;3.30;2.20;;;;;;;26.01;39.59;100281.55;112741;1249;22461;-47
2023/09/04 09:02:27;;;;;;;4.40;2.30;;;;;;;25.86;39.41;100285.56;112727;1249;22939;-47
2023/09/04 09:04:55;;;;;;;2.90;2.00;;;;;;;25.84;39.97;100289.29;112497;1249;22342;-39
2023/09/04 09:07:27;;;;;;;2.60;2.10;;;;;;;25.92;39.44;100287.12;112618;1249;23239;-47
2023/09/04 09:09:54;;;;;;;3.40;2.10;;;;;;;26.04;39.45;100290.30;112502;1241;22427;-38
2023/09/04 09:12:22;;;;;;;4.10;2.00;;;;;;;26.13;39.23;100291.52;112520;1241;22403;-47
2023/09/04 09:14:53;;;;;;;;;;;;;;;26.09;38.62;100295.85;112248;1249;23238;-41
2023/09/04 09:17:27;;;;;;;6.90;2.70;;;;;;;25.90;38.67;100293.14;112384;1249;22444;-47
2023/09/04 09:19:57;;;;;;;5.60;2.30;;;;;;;25.79;39.56;100290.98;112610;1249;23195;-48
2023/09/04 09:22:36;;;;;;;8.30;2.60;;;;;;;25.81;39.12;100291.43;112704;1249;23069;-39
2023/09/04 09:25:04;;;;;;;7.10;2.20;;;;;;;25.86;38.93;100290.73;112541;1241;22724;-40
2023/09/04 09:27:32;;;;;;;2.30;2.00;;;;;;;25.94;38.72;100295.76;112633;1244;22392;-40
2023/09/04 09:30:00;;;;;;;6.70;1.90;;;;;;;26.04;38.15;100290.64;112654;1247;22249;-48
2023/09/04 09:32:31;;;;;;;3.10;2.00;;;;;;;26.11;37.88;100284.64;112538;1249;22425;-40
2023/09/04 09:35:01;;;;;;;6.90;2.30;;;;;;;26.18;37.69;100289.73;112664;1249;23231;-40
2023/09/04 09:37:33;;;;;;;6.40;2.80;;;;;;;26.20;38.07;100291.77;112473;1249;23183;-48
2023/09/04 09:40:04;;;;;;;6.50;2.40;;;;;;;26.25;38.20;100295.53;112509;1249;22398;-49
2023/09/04 09:42:32;;;;;;;4.60;2.70;;;;;;;26.34;37.76;100292.45;112461;1247;22369;-49
2023/09/04 09:45:00;;;;;;;4.20;2.20;;;;;;;26.42;37.58;100300.01;112528;1249;22385;-41
2023/09/04 09:47:28;;;;;;;7.40;2.30;;;;;;;26.43;37.10;100298.50;112609;1249;22371;-48
2023/09/04 09:49:58;;;;;;;6.60;2.10;;;;;;;26.32;36.55;100291.69;111964;1255;22448;-48
2023/09/04 09:52:27;;;;;;;3.30;2.40;;;;;;;26.24;36.94;100297.03;112245;1255;23634;-40
2023/09/04 09:54:55;;;;;;;7.20;2.30;;;;;;;26.18;36.99;100293.48;112022;1255;22448;-48
2023/09/04 09:57:22;;;;;;;3.50;2.30;;;;;;;26.19;37.21;100296.27;112229;1244;22432;-48
2023/09/04 09:59:49;;;;;;;6.80;2.40;;;;;;;26.28;37.11;100289.48;112023;1255;22301;-49
2023/09/04 10:02:20;;;;;;;5.10;2.10;;;;;;;26.31;36.78;100286.02;112211;1251;22313;-47
2023/09/04 10:04:47;;;;;;;5.50;2.70;;;;;;;26.26;37.27;100289.55;112269;1252;22888;-39
2023/09/04 10:07:20;;;;;;;3.90;2.20;;;;;;;26.15;37.47;100293.34;112126;1249;22400;-39
2023/09/04 10:09:51;;;;;;;5.00;1.80;;;;;;;26.15;37.03;100290.64;112535;1249;22265;-48
2023/09/04 10:12:41;;;;;;;6.80;2.20;;;;;;;26.23;36.80;100294.73;112296;1249;22199;-40
2023/09/04 10:15:27;;;;;;;7.70;2.10;;;;;;;26.39;36.82;100291.80;112541;1249;22394;-48
2023/09/04 10:21:14;;;;;;;3.30;2.20;;;;;;;26.77;36.33;100292.64;112723;1247;23231;-49
2023/09/04 10:23:53;;;;;;;6.80;2.30;;;;;;;26.63;36.17;100303.27;112617;1249;22316;-49
2023/09/04 10:26:24;;;;;;;9.70;2.40;;;;;;;26.63;36.13;100307.21;112731;1249;22911;-48
2023/09/04 10:28:58;;;;;;;5.30;2.70;;;;;;;26.85;36.13;100300.02;112612;1240;22446;-48
2023/09/04 10:31:25;;;;;;;2.80;2.40;;;;;;;27.15;35.12;100297.84;112414;1249;23276;-47
2023/09/04 10:33:56;;;;;;;5.00;2.40;;;;;;;27.42;34.44;100300.37;112732;1247;22354;-40
2023/09/04 10:36:29;;;;;;;4.60;2.20;;;;;;;27.69;34.29;100298.86;112293;1249;23256;-39
2023/09/04 10:39:46;;;;;;;4.90;2.20;;;;;;;28.08;34.02;100296.10;112467;1249;22649;-40
2023/09/04 10:43:46;;;;;;;7.60;2.60;;;;;;;28.90;32.62;100296.27;112757;1249;23127;-39
2023/09/04 10:52:06;;;;;;;5.60;2.30;;;;;;;28.77;31.80;100300.84;112663;1249;23381;-40
2023/09/04 11:00:30;;;;;;;5.50;2.70;;;;;;;28.58;33.09;100296.71;112711;1249;22382;-40
2023/09/04 11:15:57;;;;;;;2.40;2.20;;;;;;;27.91;33.14;100300.36;112726;1249;22373;-40
2023/09/04 11:18:37;;;;;;;5.40;2.10;;;;;;;27.92;32.89;100303.14;112702;1242;23169;-40
2023/09/04 11:21:11;;;;;;;7.80;2.00;;;;;;;27.92;33.05;100299.77;112652;1249;22434;-39
2023/09/04 11:23:45;;;;;;;1.90;1.70;;;;;;;27.94;32.65;100301.90;112484;1249;22456;-39
2023/09/04 11:26:12;;;;;;;2.50;1.90;;;;;;;27.86;32.41;100301.77;112560;1249;23156;-48
2023/09/04 11:28:45;;;;;;;3.90;1.90;;;;;;;27.58;32.59;100296.38;112861;1235;23020;-39
2023/09/04 11:31:14;;;;;;;3.00;1.90;;;;;;;27.39;32.31;100298.13;112832;1249;22431;-40
2023/09/04 11:33:47;;;;;;;6.40;2.10;;;;;;;27.18;31.71;100303.16;112566;1249;22374;-49
2023/09/04 11:36:14;;;;;;;2.20;1.60;;;;;;;26.93;32.83;100304.98;112638;1242;23257;-49
2023/09/04 11:38:47;;;;;;;7.80;2.00;;;;;;;26.86;33.20;100303.50;112617;1247;22283;-48
2023/09/04 11:41:15;;;;;;;2.70;2.20;;;;;;;26.89;33.54;100298.66;112707;1249;22583;-48
2023/09/04 11:43:49;;;;;;;4.50;2.10;;;;;;;26.97;33.50;100301.46;112479;1249;22448;-40
2023/09/04 11:46:16;;;;;;;7.20;2.20;;;;;;;27.04;33.36;100299.05;112825;1249;23288;-39
2023/09/04 11:48:43;;;;;;;8.10;2.20;;;;;;;27.03;33.61;100294.61;112792;1244;23091;-40
2023/09/04 11:51:10;;;;;;;4.20;1.70;;;;;;;26.99;33.45;100295.46;112859;1249;22369;-49
2023/09/04 11:53:39;;;;;;;3.20;2.00;;;;;;;26.96;33.53;100293.14;112689;1249;22687;-48
2023/09/04 11:56:08;;;;;;;3.00;1.70;;;;;;;26.98;33.87;100297.85;112789;1249;23060;-40
2023/09/04 11:58:40;;;;;;;3.00;1.70;;;;;;;27.08;33.83;100295.43;112306;1249;22348;-41
2023/09/04 12:01:07;;;;;;;4.80;2.50;;;;;;;27.11;33.54;100290.38;112621;1249;22443;-49
2023/09/04 12:03:35;;;;;;;3.60;1.90;;;;;;;27.05;32.98;100295.77;112643;1249;22340;-49
2023/09/04 12:06:01;;;;;;;2.90;2.00;;;;;;;26.93;32.98;100301.77;112566;1247;22430;-48
2023/09/04 12:08:29;;;;;;;5.30;2.20;;;;;;;26.87;32.76;100300.77;112699;1249;23036;-48
2023/09/04 12:10:56;;;;;;;4.40;1.90;;;;;;;26.81;33.05;100294.16;112561;1249;22293;-49
2023/09/04 12:13:22;;;;;;;4.50;2.00;;;;;;;26.83;33.38;100299.04;112558;1240;22355;-48
2023/09/04 12:15:50;;;;;;;4.30;2.10;;;;;;;26.81;33.37;100287.77;112745;1249;23432;-41
2023/09/04 12:18:17;;;;;;;3.40;2.00;;;;;;;26.79;33.48;100294.52;112656;1239;22789;-41
2023/09/04 12:20:44;;;;;;;2.60;1.50;;;;;;;26.69;32.86;100294.77;112557;1244;22327;-41
2023/09/04 12:23:10;;;;;;;4.00;1.50;;;;;;;26.53;33.07;100299.66;112545;1240;23192;-39
2023/09/04 12:25:44;;;;;;;2.10;1.60;;;;;;;26.50;33.37;100297.30;112642;1249;23006;-40
2023/09/04 12:28:14;;;;;;;2.80;1.90;;;;;;;26.56;33.30;100292.80;112422;1248;22859;-41
2023/09/04 12:30:50;;;;;;;3.50;2.10;;;;;;;26.61;33.44;100291.08;112765;1245;22384;-40
2023/09/04 12:33:17;;;;;;;6.80;2.20;;;;;;;26.67;33.70;100291.91;112884;1249;22377;-40
2023/09/04 12:35:44;;;;;;;6.60;2.20;;;;;;;26.78;33.95;100296.38;112931;1239;23227;-40
2023/09/04 12:38:11;;;;;;;3.30;1.80;;;;;;;26.87;33.56;100297.17;112942;1238;22373;-41
2023/09/04 12:40:38;;;;;;;3.00;1.90;;;;;;;26.93;33.21;100289.24;112941;1249;23350;-40
2023/09/04 12:43:05;;;;;;;2.60;1.80;;;;;;;26.90;33.08;100288.02;112986;1242;22382;-40
2023/09/04 12:45:33;;;;;;;5.40;2.00;;;;;;;26.85;33.15;100292.85;112838;1249;22503;-41
2023/09/04 12:48:00;;;;;;;3.40;1.80;;;;;;;26.72;33.28;100299.30;112987;1249;22383;-41
2023/09/04 12:50:27;;;;;;;3.60;2.00;;;;;;;26.46;33.55;100298.66;113013;1246;22184;-42
2023/09/04 12:52:54;;;;;;;2.00;1.60;;;;;;;26.22;34.03;100288.95;112965;1239;22481;-42
2023/09/04 12:55:22;;;;;;;2.90;2.10;;;;;;;26.18;34.32;100281.71;112934;1235;23254;-41
2023/09/04 12:57:48;;;;;;;5.20;2.00;;;;;;;26.30;34.11;100278.77;112929;1240;23118;-41
2023/09/04 13:00:16;;;;;;;4.80;1.90;;;;;;;26.54;33.78;100284.55;112940;1249;22415;-42
2023/09/04 13:02:43;;;;;;;2.50;1.90;;;;;;;26.73;33.62;100283.29;112912;1249;22233;-40
2023/09/04 13:05:10;;;;;;;3.10;1.70;;;;;;;26.82;33.19;100279.12;112861;1249;23490;-40
2023/09/04 13:07:37;;;;;;;3.70;2.30;;;;;;;26.80;33.42;100276.16;112708;1247;23045;-49
2023/09/04 13:10:04;;;;;;;5.20;1.90;;;;;;;26.82;33.58;100275.33;112893;1238;22454;-41
2023/09/04 13:12:31;;;;;;;2.70;2.00;;;;;;;26.84;33.64;100283.61;112862;1248;23123;-49
2023/09/04 13:14:58;;;;;;;4.60;2.30;;;;;;;26.76;33.74;100283.61;112921;1239;23106;-49
2023/09/04 13:17:25;;;;;;;6.90;2.00;;;;;;;26.59;33.68;100282.98;112915;1240;22379;-42
2023/09/04 13:19:52;;;;;;;4.30;2.40;;;;;;;26.38;33.96;100288.61;112925;1249;23151;-41
2023/09/04 13:22:19;;;;;;;5.10;1.90;;;;;;;26.15;34.05;100291.92;112944;1249;22481;-40
2023/09/04 13:24:46;;;;;;;6.50;2.10;;;;;;;26.01;34.49;100294.27;113001;1249;22350;-40
2023/09/04 13:27:13;;;;;;;2.50;2.30;;;;;;;25.95;34.77;100294.11;113036;1238;23101;-40
2023/09/04 13:29:40;;;;;;;3.20;1.90;;;;;;;25.89;35.13;100293.19;113024;1249;22389;-40
2023/09/04 13:32:07;;;;;;;3.70;2.10;;;;;;;26.03;35.06;100290.02;112912;1249;22373;-48
2023/09/04 13:34:34;;;;;;;11.00;1.90;;;;;;;26.22;34.56;100285.20;112961;1249;22489;-40
2023/09/04 13:37:00;;;;;;;4.60;1.90;;;;;;;26.30;34.90;100286.46;113008;1237;23120;-48
2023/09/04 13:39:28;;;;;;;4.40;2.20;;;;;;;26.42;35.04;100289.64;112967;1249;22905;-48
2023/09/04 13:41:55;;;;;;;2.10;1.80;;;;;;;26.53;34.24;100286.94;112972;1249;23403;-39
2023/09/04 13:44:24;;;;;;;5.40;2.00;;;;;;;26.57;33.78;100293.67;112971;1239;22343;-47
2023/09/04 13:46:51;;;;;;;2.80;2.00;;;;;;;26.42;34.00;100295.16;112988;1249;22397;-40
2023/09/04 13:49:18;;;;;;;7.20;2.40;;;;;;;26.20;34.35;100295.52;112969;1241;22372;-48
2023/09/04 13:51:45;;;;;;;3.90;1.70;;;;;;;25.99;34.82;100297.22;112962;1241;22383;-40
2023/09/04 13:54:12;;;;;;;4.50;1.80;;;;;;;25.95;34.90;100293.73;113009;1249;22360;-41
2023/09/04 13:56:38;;;;;;;7.70;2.30;;;;;;;26.12;34.75;100290.14;113049;1239;22431;-40
2023/09/04 13:59:06;;;;;;;5.30;2.10;;;;;;;26.26;34.50;100288.30;113002;1239;22260;-41
2023/09/04 14:01:33;;;;;;;4.50;1.90;;;;;;;26.37;34.56;100283.49;113013;1248;22376;-39
2023/09/04 14:04:00;;;;;;;4.80;2.10;;;;;;;26.52;34.32;100293.27;113018;1249;22435;-40
2023/09/04 14:06:27;;;;;;;11.00;2.10;;;;;;;26.60;34.05;100296.69;113013;1249;22470;-40
2023/09/04 14:08:54;;;;;;;5.20;1.80;;;;;;;26.58;33.86;100296.45;113042;1236;22999;-42
2023/09/04 14:11:20;;;;;;;2.10;1.60;;;;;;;26.40;33.92;100299.95;113016;1238;22436;-39
2023/09/04 14:13:47;;;;;;;5.50;2.00;;;;;;;26.22;34.04;100301.45;112851;1249;22380;-47
2023/09/04 14:16:14;;;;;;;2.50;1.90;;;;;;;26.34;34.24;100301.41;113047;1249;22946;-40
2023/09/04 14:18:41;;;;;;;4.90;2.20;;;;;;;26.77;33.70;100305.15;113020;1239;22338;-48
2023/09/04 14:21:08;;;;;;;5.60;2.20;;;;;;;27.29;32.78;100297.02;113004;1243;22363;-48
2023/09/04 14:23:35;;;;;;;4.60;1.90;;;;;;;27.37;32.17;100302.34;113023;1237;23136;-48
2023/09/04 14:26:01;;;;;;;10.80;2.10;;;;;;;27.08;32.63;100300.23;113017;1237;22380;-48
2023/09/04 14:28:28;;;;;;;6.50;2.20;;;;;;;26.76;33.07;100302.71;113046;1246;22604;-48
2023/09/04 14:30:55;;;;;;;4.30;1.80;;;;;;;26.45;33.66;100300.86;113062;1239;22368;-48
2023/09/04 14:33:22;;;;;;;7.70;2.00;;;;;;;26.20;33.84;100299.81;113058;1249;22411;-42
2023/09/04 14:35:57;;;;;;;4.20;2.00;;;;;;;26.17;34.25;100296.05;113025;1237;22357;-41
2023/09/04 14:38:24;;;;;;;5.50;1.80;;;;;;;26.31;34.30;100294.98;113038;1240;23161;-41
2023/09/04 14:40:50;;;;;;;5.70;2.20;;;;;;;26.29;33.89;100301.73;113048;1243;22237;-41
2023/09/04 14:43:17;;;;;;;2.50;1.90;;;;;;;26.14;33.89;100305.05;113060;1249;22378;-49
2023/09/04 14:45:44;;;;;;;8.10;2.20;;;;;;;25.99;33.89;100305.63;113050;1249;22379;-49
2023/09/04 14:48:22;;;;;;;4.20;1.80;;;;;;;25.86;34.49;100307.55;113005;1236;22411;-50
2023/09/04 14:50:49;;;;;;;3.90;1.60;;;;;;;25.75;34.71;100311.98;113043;1238;22394;-49
2023/09/04 14:53:15;;;;;;;5.00;1.90;;;;;;;25.62;34.86;100307.41;113006;1239;23247;-49
2023/09/04 14:55:42;;;;;;;5.00;1.80;;;;;;;25.49;34.83;100307.47;113023;1237;23167;-41
2023/09/04 14:58:09;;;;;;;3.80;1.40;;;;;;;25.47;35.02;100312.79;113065;1239;22377;-41
2023/09/04 15:00:35;;;;;;;4.60;2.20;;;;;;;25.58;35.21;100315.88;113035;1239;22342;-49
